createdAt,value
2022-09-07T00:01:24.670Z,14.55
2022-09-07T00:03:47.560Z,14.73
2022-09-07T00:06:12.677Z,12.88
2022-09-07T00:08:35.783Z,13.32
2022-09-07T00:11:01.076Z,14.30
2022-09-07T00:13:25.855Z,16.60
2022-09-07T00:15:48.517Z,13.90
2022-09-07T00:18:11.164Z,14.10
2022-09-07T00:20:34.140Z,13.48
2022-09-07T00:22:57.349Z,15.55
2022-09-07T00:25:20.006Z,15.90
2022-09-07T00:27:43.345Z,14.38
2022-09-07T00:30:06.999Z,15.77
2022-09-07T00:32:29.613Z,17.02
2022-09-07T00:34:52.230Z,13.82
2022-09-07T00:37:14.897Z,17.10
2022-09-07T00:39:37.643Z,14.70
2022-09-07T00:42:01.981Z,15.07
2022-09-07T00:44:42.697Z,16.17
2022-09-07T00:47:40.401Z,16.75
2022-09-07T00:50:10.019Z,14.75
2022-09-07T00:52:34.553Z,16.30
2022-09-07T00:55:02.987Z,16.70
2022-09-07T00:57:28.172Z,15.73
2022-09-07T00:59:53.517Z,15.55
2022-09-07T01:02:17.596Z,17.02
2022-09-07T01:04:40.885Z,17.23
2022-09-07T01:07:04.187Z,17.25
2022-09-07T01:09:28.319Z,17.80
2022-09-07T01:11:52.575Z,18.58
2022-09-07T01:14:15.936Z,16.05
2022-09-07T01:17:02.952Z,16.10
2022-09-07T01:19:55.901Z,18.48
2022-09-07T01:22:36.543Z,16.95
2022-09-07T01:24:59.174Z,16.13
2022-09-07T01:27:33.580Z,17.88
2022-09-07T01:30:09.641Z,19.30
2022-09-07T01:32:59.520Z,18.17
2022-09-07T01:36:00.605Z,18.83
2022-09-07T01:38:31.858Z,18.35
2022-09-07T01:41:03.364Z,18.05
2022-09-07T01:43:40.156Z,18.73
2022-09-07T01:46:07.800Z,18.52
2022-09-07T01:48:33.717Z,18.17
2022-09-07T01:51:01.658Z,19.67
2022-09-07T01:53:34.159Z,19.25
2022-09-07T01:56:01.797Z,18.23
2022-09-07T01:58:27.495Z,20.25
2022-09-07T02:01:16.136Z,21.77
2022-09-07T02:04:13.927Z,20.83
2022-09-07T02:06:59.252Z,18.98
2022-09-07T02:09:46.187Z,22.20
2022-09-07T02:12:18.828Z,22.05
2022-09-07T02:14:46.457Z,21.40
2022-09-07T02:17:33.826Z,20.80
2022-09-07T02:20:01.570Z,19.20
2022-09-07T02:22:29.417Z,20.83
2022-09-07T02:24:56.253Z,20.35
2022-09-07T02:27:26.623Z,19.98
2022-09-07T02:29:49.254Z,20.13
2022-09-07T02:32:11.959Z,20.02
2022-09-07T02:34:35.007Z,20.33
2022-09-07T02:36:59.930Z,19.33
2022-09-07T02:39:22.688Z,20.77
2022-09-07T02:41:46.113Z,19.55
2022-09-07T02:44:15.217Z,20.15
2022-09-07T02:46:50.548Z,19.92
2022-09-07T02:49:35.712Z,19.58
2022-09-07T02:52:17.262Z,17.80
2022-09-07T02:55:09.204Z,18.73
2022-09-07T02:58:07.568Z,18.50
2022-09-07T03:00:35.136Z,19.38
2022-09-07T03:03:21.248Z,18.85
2022-09-07T03:05:50.835Z,18.92
2022-09-07T03:08:24.393Z,18.02
2022-09-07T03:10:48.257Z,18.05
2022-09-07T03:13:21.880Z,19.13
2022-09-07T03:15:44.557Z,19.73
2022-09-07T03:18:07.647Z,20.58
2022-09-07T03:20:30.299Z,18.20
2022-09-07T03:22:52.992Z,19.67
2022-09-07T03:25:16.060Z,19.95
2022-09-07T03:27:38.949Z,17.95
2022-09-07T03:30:02.201Z,17.13
2022-09-07T03:32:25.222Z,18.60
2022-09-07T03:34:48.581Z,18.15
2022-09-07T03:37:11.315Z,18.70
2022-09-07T03:39:34.908Z,16.50
2022-09-07T03:41:57.492Z,18.50
2022-09-07T03:44:20.081Z,16.45
2022-09-07T03:46:44.266Z,17.67
2022-09-07T03:49:06.876Z,17.30
2022-09-07T03:51:29.600Z,18.38
2022-09-07T03:53:52.459Z,19.13
2022-09-07T03:56:19.077Z,20.42
2022-09-07T03:58:42.135Z,22.80
2022-09-07T04:01:10.065Z,18.95
2022-09-07T04:03:32.813Z,18.60
2022-09-07T04:05:57.402Z,18.50
2022-09-07T04:08:20.143Z,19.27
2022-09-07T04:10:42.806Z,20.17
2022-09-07T04:13:06.145Z,21.38
2022-09-07T04:15:29.291Z,20.65
2022-09-07T04:17:52.316Z,19.60
2022-09-07T04:20:35.553Z,18.67
2022-09-07T04:23:19.167Z,20.58
2022-09-07T04:25:49.070Z,22.35
2022-09-07T04:28:11.738Z,21.17
2022-09-07T04:30:36.067Z,19.48
2022-09-07T04:32:58.663Z,18.15
2022-09-07T04:35:21.236Z,19.58
2022-09-07T04:37:44.650Z,19.52
2022-09-07T04:40:08.013Z,18.92
2022-09-07T04:42:31.042Z,19.30
2022-09-07T04:44:53.548Z,17.60
2022-09-07T04:47:17.756Z,18.75
2022-09-07T04:49:40.501Z,17.27
2022-09-07T04:52:03.442Z,22.95
2022-09-07T04:54:26.852Z,18.00
2022-09-07T04:56:49.531Z,18.02
2022-09-07T04:59:12.330Z,16.88
2022-09-07T05:01:35.186Z,15.50
2022-09-07T05:04:01.178Z,17.23
2022-09-07T05:06:24.178Z,17.00
2022-09-07T05:08:49.304Z,20.17
2022-09-07T05:11:13.285Z,18.13
2022-09-07T05:13:36.528Z,16.33
2022-09-07T05:16:00.117Z,16.00
2022-09-07T05:18:22.944Z,18.25
2022-09-07T05:20:45.581Z,17.20
2022-09-07T05:23:08.964Z,16.83
2022-09-07T05:25:31.711Z,18.10
2022-09-07T05:27:55.277Z,15.32
2022-09-07T05:33:00.735Z,16.73
2022-09-07T05:35:23.467Z,15.27
2022-09-07T05:37:50.810Z,15.20
2022-09-07T05:40:15.499Z,14.98
2022-09-07T05:42:38.710Z,14.35
2022-09-07T05:45:01.504Z,15.23
2022-09-07T05:47:24.688Z,15.93
2022-09-07T05:49:47.766Z,15.18
2022-09-07T05:52:10.929Z,15.32
2022-09-07T05:54:34.043Z,15.95
2022-09-07T05:56:56.846Z,16.77
2022-09-07T05:59:19.524Z,15.55
2022-09-07T06:01:42.471Z,15.77
2022-09-07T06:04:05.367Z,15.38
2022-09-07T06:06:28.227Z,13.80
2022-09-07T06:08:53.149Z,14.05
2022-09-07T06:11:21.777Z,15.55
2022-09-07T06:13:44.823Z,14.82
2022-09-07T06:16:09.208Z,15.57
2022-09-07T06:18:36.796Z,15.07
2022-09-07T06:21:07.234Z,16.10
2022-09-07T06:23:34.227Z,16.80
2022-09-07T06:25:56.896Z,16.50
2022-09-07T06:28:20.561Z,16.83
2022-09-07T06:30:43.143Z,19.55
2022-09-07T06:33:05.829Z,17.73
2022-09-07T06:35:28.568Z,16.17
2022-09-07T06:37:51.513Z,18.90
2022-09-07T06:40:14.412Z,16.13
2022-09-07T06:42:37.375Z,17.10
2022-09-07T06:44:59.961Z,17.42
2022-09-07T06:47:22.684Z,15.73
2022-09-07T06:49:45.485Z,18.75
2022-09-07T06:52:08.319Z,15.68
2022-09-07T06:57:13.980Z,16.52
2022-09-07T06:59:37.344Z,17.05
2022-09-07T07:02:00.178Z,15.80
2022-09-07T07:04:52.393Z,19.08
2022-09-07T07:07:15.336Z,16.88
2022-09-07T07:09:38.986Z,17.55
2022-09-07T07:12:02.576Z,16.52
2022-09-07T07:14:44.982Z,17.23
2022-09-07T07:17:09.062Z,18.08
2022-09-07T07:19:32.079Z,21.48
2022-09-07T07:22:18.338Z,17.98
2022-09-07T07:24:37.920Z,19.35
2022-09-07T07:27:00.533Z,18.42
2022-09-07T07:29:25.113Z,16.00
2022-09-07T07:31:51.469Z,16.17
2022-09-07T07:34:15.899Z,17.23
2022-09-07T07:36:40.705Z,16.10
2022-09-07T07:39:05.166Z,17.20
2022-09-07T07:44:15.318Z,17.88
2022-09-07T07:46:38.379Z,16.07
2022-09-07T07:49:01.269Z,15.43
2022-09-07T07:51:24.460Z,15.18
2022-09-07T07:53:47.625Z,15.75
2022-09-07T07:56:12.033Z,14.90
2022-09-07T07:58:36.929Z,14.65
2022-09-07T08:01:14.080Z,15.80
2022-09-07T08:03:39.326Z,15.35
2022-09-07T08:06:31.233Z,15.52
2022-09-07T08:08:55.970Z,14.77
2022-09-07T08:11:20.897Z,16.83
2022-09-07T08:13:46.568Z,14.70
2022-09-07T08:16:10.412Z,15.80
2022-09-07T08:18:35.256Z,14.80
2022-09-07T08:21:10.171Z,14.00
2022-09-07T08:23:33.489Z,13.70
2022-09-07T08:25:58.472Z,16.52
2022-09-07T08:28:23.524Z,17.13
2022-09-07T08:30:46.172Z,15.60
2022-09-07T08:33:10.594Z,14.10
2022-09-07T08:35:33.211Z,17.00
2022-09-07T08:37:57.228Z,16.08
2022-09-07T08:40:20.642Z,18.88
2022-09-07T08:43:01.924Z,16.55
2022-09-07T08:45:51.734Z,17.95
2022-09-07T08:48:18.936Z,15.57
2022-09-07T08:51:12.314Z,17.58
2022-09-07T08:53:36.902Z,16.38
2022-09-07T08:56:04.286Z,15.90
2022-09-07T08:58:55.882Z,19.83
2022-09-07T09:01:37.447Z,18.73
2022-09-07T09:04:17.257Z,16.17
2022-09-07T09:07:07.249Z,16.70
2022-09-07T09:10:15.070Z,15.80
2022-09-07T09:12:55.231Z,18.17
2022-09-07T09:15:45.377Z,17.90
2022-09-07T09:18:14.495Z,17.52
2022-09-07T09:20:49.006Z,16.80
2022-09-07T09:23:14.943Z,16.73
2022-09-07T09:25:40.751Z,17.20
2022-09-07T09:28:03.494Z,18.23
2022-09-07T09:30:27.797Z,15.98
2022-09-07T09:33:11.452Z,14.35
2022-09-07T09:35:38.882Z,15.82
2022-09-07T09:38:03.676Z,18.08
2022-09-07T09:40:30.367Z,16.13
2022-09-07T09:43:01.864Z,15.50
2022-09-07T09:45:27.263Z,17.30
2022-09-07T09:47:52.890Z,17.30
2022-09-07T09:53:07.134Z,18.93
2022-09-07T09:55:35.471Z,19.15
2022-09-07T10:04:01.503Z,17.45
2022-09-07T10:07:16.331Z,16.77
2022-09-07T10:09:42.401Z,17.77
2022-09-07T10:12:08.045Z,18.73
2022-09-07T10:14:33.371Z,18.85
2022-09-07T10:16:57.989Z,18.27
2022-09-07T10:19:30.055Z,18.53
2022-09-07T10:22:02.171Z,19.08
2022-09-07T10:24:27.040Z,20.45
2022-09-07T10:26:50.355Z,21.77
2022-09-07T10:29:30.554Z,20.02
2022-09-07T10:32:09.191Z,20.90
2022-09-07T10:34:34.438Z,20.13
2022-09-07T10:37:04.418Z,20.02
2022-09-07T10:39:42.337Z,21.20
2022-09-07T10:42:26.222Z,22.52
2022-09-07T10:45:04.416Z,22.97
2022-09-07T10:47:56.685Z,24.10
2022-09-07T10:50:41.218Z,21.45
2022-09-07T10:53:39.125Z,24.80
2022-09-07T10:56:19.806Z,22.75
2022-09-07T10:59:02.960Z,23.13
2022-09-07T11:02:14.460Z,21.40
2022-09-07T11:04:44.437Z,23.55
2022-09-07T11:07:15.719Z,25.80
2022-09-07T11:10:01.446Z,22.70
2022-09-07T11:12:37.898Z,21.30
2022-09-07T11:15:12.417Z,22.02
2022-09-07T11:17:52.023Z,22.63
2022-09-07T11:20:41.726Z,21.65
2022-09-07T11:23:14.474Z,23.27
2022-09-07T11:25:46.637Z,24.87
2022-09-07T11:28:26.837Z,22.17
2022-09-07T11:31:00.046Z,21.98
2022-09-07T11:33:28.749Z,21.38
2022-09-07T11:36:02.785Z,21.23
2022-09-07T11:38:51.347Z,21.20
2022-09-07T11:41:29.443Z,23.05
2022-09-07T11:44:45.863Z,22.52
2022-09-07T11:47:18.780Z,24.58
2022-09-07T11:49:41.569Z,23.60
2022-09-07T11:52:23.029Z,23.67
2022-09-07T11:54:53.909Z,22.45
2022-09-07T11:57:43.511Z,23.17
2022-09-07T12:00:12.124Z,21.23
2022-09-07T12:03:06.210Z,22.35
2022-09-07T12:05:31.750Z,24.77
2022-09-07T12:08:09.944Z,22.75
2022-09-07T12:11:08.146Z,22.92
2022-09-07T12:13:43.852Z,21.77
2022-09-07T12:16:22.532Z,22.17
2022-09-07T12:19:26.757Z,21.90
2022-09-07T12:21:52.722Z,22.13
2022-09-07T12:24:43.316Z,22.35
2022-09-07T12:27:26.486Z,22.33
2022-09-07T12:29:52.587Z,21.63
2022-09-07T12:32:58.719Z,22.57
2022-09-07T12:35:28.790Z,24.73
2022-09-07T12:37:51.478Z,22.95
2022-09-07T12:40:29.730Z,24.15
2022-09-07T12:43:12.291Z,24.02
2022-09-07T12:45:49.885Z,24.87
2022-09-07T12:48:15.471Z,21.98
2022-09-07T12:50:56.923Z,23.45
2022-09-07T12:53:46.025Z,22.88
2022-09-07T12:56:16.398Z,20.60
2022-09-07T12:58:53.459Z,22.63
2022-09-07T13:01:36.754Z,20.95
2022-09-07T13:04:05.231Z,22.00
2022-09-07T13:09:40.805Z,24.30
2022-09-07T13:12:58.842Z,25.17
2022-09-07T13:15:41.624Z,25.25
2022-09-07T13:18:29.216Z,24.83
2022-09-07T13:21:07.925Z,25.88
2022-09-07T13:23:31.429Z,26.50
2022-09-07T13:25:56.019Z,23.53
2022-09-07T13:28:31.883Z,25.23
2022-09-07T13:31:08.597Z,26.35
2022-09-07T13:33:52.361Z,23.38
2022-09-07T13:36:44.833Z,23.75
2022-09-07T13:39:12.922Z,25.03
2022-09-07T13:41:41.264Z,26.25
2022-09-07T13:44:05.724Z,25.35
2022-09-07T13:46:53.303Z,24.75
2022-09-07T13:49:52.483Z,27.80
2022-09-07T13:52:44.199Z,24.53
2022-09-07T13:55:34.392Z,25.30
2022-09-07T13:58:18.028Z,24.58
2022-09-07T14:01:13.201Z,24.95
2022-09-07T14:03:59.748Z,24.80
2022-09-07T14:06:22.318Z,24.93
2022-09-07T14:08:50.077Z,25.65
2022-09-07T14:11:42.121Z,24.90
2022-09-07T14:14:24.880Z,23.27
2022-09-07T14:17:00.879Z,31.58
2022-09-07T14:19:45.376Z,26.37
2022-09-07T14:22:28.870Z,24.85
2022-09-07T14:25:07.147Z,25.52
2022-09-07T14:27:40.942Z,25.35
2022-09-07T14:30:42.042Z,27.35
2022-09-07T14:33:13.582Z,24.70
2022-09-07T14:35:39.488Z,26.48
2022-09-07T14:41:16.021Z,25.27
2022-09-07T14:43:50.776Z,23.83
2022-09-07T14:46:22.284Z,25.47
2022-09-07T14:48:46.807Z,22.58
2022-09-07T14:51:29.735Z,22.58
2022-09-07T14:53:57.666Z,23.67
2022-09-07T14:56:23.262Z,22.35
2022-09-07T14:58:46.314Z,22.00
2022-09-07T15:04:00.664Z,23.70
2022-09-07T15:09:38.960Z,24.50
2022-09-07T15:12:27.324Z,22.43
2022-09-07T15:14:55.732Z,21.90
2022-09-07T15:20:32.375Z,22.52
2022-09-07T15:22:55.693Z,21.25
2022-09-07T15:25:18.160Z,20.77
2022-09-07T15:27:40.951Z,24.05
2022-09-07T15:30:03.879Z,25.23
2022-09-07T15:32:26.379Z,23.23
2022-09-07T15:34:49.385Z,23.38
2022-09-07T15:39:55.196Z,24.02
2022-09-07T15:45:01.931Z,23.88
2022-09-07T15:50:08.584Z,23.13
2022-09-07T15:52:32.139Z,20.85
2022-09-07T15:54:56.685Z,21.58
2022-09-07T16:00:02.317Z,23.45
2022-09-07T16:03:07.566Z,22.40
2022-09-07T16:05:19.426Z,20.55
2022-09-07T16:10:25.955Z,23.40
2022-09-07T16:13:10.687Z,21.58
2022-09-07T16:15:31.920Z,21.63
2022-09-07T16:17:54.498Z,22.67
2022-09-07T16:20:17.248Z,20.63
2022-09-07T16:25:22.440Z,23.45
2022-09-07T16:27:44.960Z,23.03
2022-09-07T16:30:08.475Z,20.40
2022-09-07T16:32:46.459Z,23.45
2022-09-07T16:35:09.579Z,22.65
2022-09-07T16:37:32.159Z,20.70
2022-09-07T16:39:54.942Z,21.97
2022-09-07T16:42:17.655Z,21.90
2022-09-07T16:44:40.418Z,25.13
2022-09-07T16:47:04.425Z,22.48
2022-09-07T16:49:28.849Z,29.27
2022-09-07T16:51:52.353Z,29.80
2022-09-07T16:54:15.890Z,26.08
2022-09-07T16:56:39.300Z,25.38
2022-09-07T16:59:04.249Z,25.10
2022-09-07T17:01:32.641Z,23.90
2022-09-07T17:03:55.509Z,24.80
2022-09-07T17:06:20.488Z,25.38
2022-09-07T17:08:44.025Z,23.35
2022-09-07T17:11:09.026Z,25.05
2022-09-07T17:13:36.143Z,23.83
2022-09-07T17:16:07.806Z,23.00
2022-09-07T17:21:14.669Z,28.00
2022-09-07T17:23:45.643Z,30.13
2022-09-07T17:26:18.034Z,25.40
2022-09-07T17:28:44.106Z,26.57
2022-09-07T17:31:09.843Z,25.13
2022-09-07T17:33:34.121Z,24.10
2022-09-07T17:35:59.834Z,26.55
2022-09-07T17:41:13.893Z,27.47
2022-09-07T17:43:45.229Z,26.80
2022-09-07T17:46:37.976Z,25.75
2022-09-07T17:49:02.310Z,26.92
2022-09-07T17:51:27.221Z,31.10
2022-09-07T17:53:50.053Z,25.90
2022-09-07T17:56:14.900Z,26.23
2022-09-07T17:58:39.661Z,25.70
2022-09-07T18:01:03.600Z,26.95
2022-09-07T18:03:28.611Z,27.48
2022-09-07T18:05:55.734Z,27.07
2022-09-07T18:08:18.542Z,27.98
2022-09-07T18:13:35.100Z,25.38
2022-09-07T18:15:59.906Z,26.60
2022-09-07T18:18:22.427Z,29.40
2022-09-07T18:20:45.127Z,25.80
2022-09-07T18:23:08.854Z,28.75
2022-09-07T18:25:33.775Z,29.77
2022-09-07T18:30:42.167Z,28.37
2022-09-07T18:33:05.658Z,30.88
2022-09-07T18:35:28.179Z,27.90
2022-09-07T18:37:51.010Z,29.48
2022-09-07T18:40:13.730Z,31.27
2022-09-07T18:42:36.445Z,29.97
2022-09-07T18:47:44.230Z,28.38
2022-09-07T18:50:07.425Z,27.20
2022-09-07T18:55:12.487Z,28.53
2022-09-07T18:57:36.115Z,33.25
2022-09-07T18:59:58.829Z,28.42
2022-09-07T19:02:21.399Z,28.52
2022-09-07T19:07:30.042Z,27.77
2022-09-07T19:09:52.766Z,27.80
2022-09-07T19:12:15.711Z,32.67
2022-09-07T19:14:38.200Z,30.05
2022-09-07T19:17:00.744Z,33.20
2022-09-07T19:19:24.225Z,29.77
2022-09-07T19:21:46.805Z,30.55
2022-09-07T19:24:15.318Z,30.05
2022-09-07T19:26:40.176Z,28.45
2022-09-07T19:29:04.466Z,29.25
2022-09-07T19:31:28.739Z,29.63
2022-09-07T19:33:55.735Z,28.42
2022-09-07T19:36:18.464Z,30.38
2022-09-07T19:38:41.302Z,27.17
2022-09-07T19:41:03.975Z,27.80
2022-09-07T19:43:29.899Z,29.53
2022-09-07T19:45:52.599Z,29.88
2022-09-07T19:48:15.318Z,27.30
2022-09-07T19:50:38.051Z,26.63
2022-09-07T19:53:00.638Z,26.70
2022-09-07T19:55:23.201Z,25.87
2022-09-07T19:57:47.508Z,22.70
2022-09-07T20:00:10.843Z,26.65
2022-09-07T20:02:36.187Z,23.35
2022-09-07T20:04:59.000Z,24.40
2022-09-07T20:07:21.448Z,26.63
2022-09-07T20:09:44.080Z,23.67
2022-09-07T20:12:08.361Z,24.90
2022-09-07T20:14:30.967Z,22.77
2022-09-07T20:16:53.471Z,24.60
2022-09-07T20:19:16.115Z,23.83
2022-09-07T20:21:38.696Z,24.60
2022-09-07T20:24:01.416Z,23.33
2022-09-07T20:26:23.949Z,23.88
2022-09-07T20:28:46.952Z,23.40
2022-09-07T20:31:11.145Z,25.80
2022-09-07T20:33:34.095Z,24.48
2022-09-07T20:36:09.204Z,23.95
2022-09-07T20:38:32.048Z,22.77
2022-09-07T20:40:56.764Z,22.13
2022-09-07T20:43:21.001Z,23.90
2022-09-07T20:45:43.715Z,23.38
2022-09-07T20:48:06.315Z,23.20
2022-09-07T20:50:29.112Z,25.75
2022-09-07T20:52:52.922Z,25.63
2022-09-07T20:55:15.586Z,25.13
2022-09-07T20:57:38.318Z,25.75
2022-09-07T21:00:01.001Z,25.17
2022-09-07T21:02:23.677Z,26.95
2022-09-07T21:04:46.313Z,27.70
2022-09-07T21:07:09.476Z,32.17
2022-09-07T21:09:32.101Z,32.08
2022-09-07T21:11:57.161Z,28.65
2022-09-07T21:14:21.323Z,29.25
2022-09-07T21:16:43.995Z,30.15
2022-09-07T21:19:09.091Z,31.13
2022-09-07T21:21:38.310Z,34.88
2022-09-07T21:24:03.398Z,30.50
2022-09-07T21:26:27.788Z,31.23
2022-09-07T21:29:04.983Z,32.53
2022-09-07T21:31:29.179Z,31.75
2022-09-07T21:33:59.608Z,32.47
2022-09-07T21:36:23.122Z,33.17
2022-09-07T21:38:45.668Z,35.42
2022-09-07T21:41:13.903Z,39.67
2022-09-07T21:43:36.613Z,39.90
2022-09-07T21:46:07.494Z,37.80
2022-09-07T21:48:30.921Z,36.25
2022-09-07T21:50:57.150Z,37.83
2022-09-07T21:53:19.718Z,38.63
2022-09-07T21:55:42.220Z,38.50
2022-09-07T21:58:04.940Z,42.75
2022-09-07T22:00:27.419Z,37.67
2022-09-07T22:02:51.639Z,41.00
2022-09-07T22:05:14.210Z,36.50
2022-09-07T22:07:37.024Z,38.50
2022-09-07T22:09:59.574Z,40.33
2022-09-07T22:12:22.225Z,35.65
2022-09-07T22:14:46.047Z,35.47
2022-09-07T22:17:09.678Z,38.08
2022-09-07T22:19:35.319Z,36.72
2022-09-07T22:22:00.573Z,36.00
2022-09-07T22:24:23.139Z,36.28
2022-09-07T22:26:46.591Z,38.13
2022-09-07T22:29:11.724Z,36.53
2022-09-07T22:31:36.303Z,35.97
2022-09-07T22:34:00.502Z,35.05
2022-09-07T22:36:26.143Z,36.38
2022-09-07T22:38:52.303Z,32.40
2022-09-07T22:41:22.946Z,35.47
2022-09-07T22:43:45.798Z,36.65
2022-09-07T22:46:09.041Z,36.88
2022-09-07T22:48:31.759Z,35.78
2022-09-07T22:50:59.022Z,36.85
2022-09-07T22:53:22.102Z,34.55
2022-09-07T22:55:44.948Z,36.38
2022-09-07T22:58:07.585Z,37.28
2022-09-07T23:00:30.137Z,35.17
2022-09-07T23:02:53.299Z,34.28
2022-09-07T23:05:16.177Z,33.83
2022-09-07T23:07:38.668Z,35.20
2022-09-07T23:10:01.452Z,36.30
2022-09-07T23:12:23.975Z,37.53
2022-09-07T23:14:46.574Z,40.13
2022-09-07T23:17:09.924Z,37.92
2022-09-07T23:19:32.553Z,36.45
2022-09-07T23:21:55.264Z,35.72
2022-09-07T23:24:18.801Z,39.50
2022-09-07T23:26:41.863Z,36.38
2022-09-07T23:29:04.912Z,37.17
2022-09-07T23:31:31.130Z,35.03
2022-09-07T23:33:54.035Z,36.47
2022-09-07T23:36:17.475Z,37.35
2022-09-07T23:38:39.980Z,37.90
2022-09-07T23:41:02.580Z,35.80
2022-09-07T23:43:27.466Z,35.10
2022-09-07T23:45:50.584Z,31.58
2022-09-07T23:48:13.389Z,31.05
2022-09-07T23:50:35.876Z,33.08
2022-09-07T23:52:58.412Z,34.22
2022-09-07T23:55:21.185Z,35.65
2022-09-07T23:57:43.715Z,30.67
